createdAt,value
2018-10-05T00:00:03.732Z,100608.91
2018-10-05T00:02:32.269Z,100610.67
2018-10-05T00:05:00.847Z,100608.47
2018-10-05T00:07:30.552Z,100605.88
2018-10-05T00:09:59.161Z,100604.10
2018-10-05T00:12:27.772Z,100607.19
2018-10-05T00:14:56.390Z,100583.13
2018-10-05T00:17:25.101Z,100604.97
2018-10-05T00:19:53.615Z,100606.31
2018-10-05T00:22:22.177Z,100607.62
2018-10-05T00:24:50.700Z,100606.76
2018-10-05T00:27:19.287Z,100604.99
2018-10-05T00:29:47.811Z,100602.39
2018-10-05T00:32:16.398Z,100591.88
2018-10-05T00:34:44.891Z,100591.88
2018-10-05T00:37:13.442Z,100586.19
2018-10-05T00:39:41.991Z,100588.81
2018-10-05T00:42:10.442Z,100585.75
2018-10-05T00:44:38.894Z,100589.71
2018-10-05T00:47:07.450Z,100580.94
2018-10-05T00:49:36.008Z,100580.96
2018-10-05T00:52:04.544Z,100583.58
2018-10-05T00:54:33.000Z,100581.83
2018-10-05T00:57:01.506Z,100575.71
2018-10-05T00:59:30.062Z,100576.59
2018-10-05T01:01:58.586Z,100572.64
2018-10-05T01:04:27.065Z,100562.17
2018-10-05T01:06:55.539Z,100560.42
2018-10-05T01:09:24.105Z,100558.67
2018-10-05T01:11:52.659Z,100557.80
2018-10-05T01:14:21.176Z,100555.17
2018-10-05T01:16:49.663Z,100554.71
2018-10-05T01:19:18.206Z,100556.91
2018-10-05T01:21:46.679Z,100553.41
2018-10-05T01:24:15.183Z,100551.25
2018-10-05T01:26:43.703Z,100552.54
2018-10-05T01:29:12.172Z,100555.19
2018-10-05T01:31:40.629Z,100547.73
2018-10-05T01:34:09.132Z,100542.48
2018-10-05T01:36:37.586Z,100542.94
2018-10-05T01:39:06.823Z,100536.37
2018-10-05T01:41:35.310Z,100535.06
2018-10-05T01:44:03.807Z,100529.38
2018-10-05T01:46:32.289Z,100526.75
2018-10-05T01:49:00.825Z,100525.89
2018-10-05T01:51:32.894Z,100523.71
2018-10-05T01:54:02.259Z,100525.02
2018-10-05T01:56:31.229Z,100516.71
2018-10-05T01:59:00.302Z,100516.27
2018-10-05T02:01:36.636Z,100515.39
2018-10-05T02:04:06.021Z,100513.22
2018-10-05T02:06:34.506Z,100505.33
2018-10-05T02:09:03.306Z,100504.05
2018-10-05T02:11:31.813Z,100502.30
2018-10-05T02:14:00.385Z,100502.74
2018-10-05T02:16:28.911Z,100498.36
2018-10-05T02:18:57.446Z,100497.06
2018-10-05T02:21:25.938Z,100500.10
2018-10-05T02:23:54.521Z,100492.69
2018-10-05T02:26:22.967Z,100488.74
2018-10-05T02:28:51.434Z,100494.44
2018-10-05T02:31:19.875Z,100488.76
2018-10-05T02:33:48.354Z,100486.14
2018-10-05T02:36:16.889Z,100480.02
2018-10-05T02:38:45.442Z,100480.91
2018-10-05T02:41:13.929Z,100475.19
2018-10-05T02:43:42.422Z,100470.83
2018-10-05T02:46:10.881Z,100474.77
2018-10-05T02:48:39.418Z,100472.59
2018-10-05T02:51:07.875Z,100473.89
2018-10-05T02:53:36.803Z,100469.11
2018-10-05T02:56:05.340Z,100466.02
2018-10-05T02:58:33.845Z,100467.35
2018-10-05T03:01:13.513Z,100459.94
2018-10-05T03:03:42.057Z,100456.00
2018-10-05T03:06:10.613Z,100460.36
2018-10-05T03:08:39.123Z,100454.66
2018-10-05T03:11:07.691Z,100453.35
2018-10-05T03:13:36.264Z,100448.53
2018-10-05T03:16:04.761Z,100447.22
2018-10-05T03:18:33.269Z,100453.35
2018-10-05T03:21:01.903Z,100446.78
2018-10-05T03:23:30.529Z,100440.66
2018-10-05T03:25:59.091Z,100440.66
2018-10-05T03:28:27.599Z,100438.05
2018-10-05T03:30:56.153Z,100441.98
2018-10-05T03:33:24.596Z,100437.61
2018-10-05T03:35:53.119Z,100437.61
2018-10-05T03:38:21.634Z,100435.44
2018-10-05T03:40:50.117Z,100427.57
2018-10-05T03:43:18.625Z,100435.44
2018-10-05T03:45:47.076Z,100429.76
2018-10-05T03:48:15.549Z,100429.75
2018-10-05T03:50:43.998Z,100430.17
2018-10-05T03:53:12.450Z,100421.88
2018-10-05T03:55:41.007Z,100426.70
2018-10-05T03:58:09.541Z,100425.82
2018-10-05T04:00:38.059Z,100419.71
2018-10-05T04:03:06.573Z,100418.82
2018-10-05T04:05:35.071Z,100424.09
2018-10-05T04:08:03.587Z,100419.69
2018-10-05T04:10:32.128Z,100421.02
2018-10-05T04:13:00.647Z,100424.06
2018-10-05T04:15:29.147Z,100416.21
2018-10-05T04:17:57.684Z,100415.78
2018-10-05T04:20:26.227Z,100411.84
2018-10-05T04:22:54.725Z,100408.80
2018-10-05T04:25:23.220Z,100402.67
2018-10-05T04:27:51.701Z,100394.38
2018-10-05T04:30:20.263Z,100393.07
2018-10-05T04:32:48.822Z,100393.07
2018-10-05T04:35:17.347Z,100389.13
2018-10-05T04:37:45.900Z,100390.86
2018-10-05T04:40:14.504Z,100383.01
2018-10-05T04:42:42.990Z,100382.59
2018-10-05T04:48:01.834Z,100386.94
2018-10-05T04:50:30.269Z,100392.64
2018-10-05T04:52:58.843Z,100384.33
2018-10-05T04:55:27.345Z,100387.81
2018-10-05T04:57:55.816Z,100381.71
2018-10-05T05:00:24.385Z,100386.93
2018-10-05T05:02:52.920Z,100383.47
2018-10-05T05:05:21.413Z,100383.45
2018-10-05T05:07:50.032Z,100379.95
2018-10-05T05:10:18.575Z,100369.47
2018-10-05T05:12:47.135Z,100376.89
2018-10-05T05:15:15.698Z,100374.27
2018-10-05T05:17:44.242Z,100374.30
2018-10-05T05:20:12.839Z,100371.20
2018-10-05T05:22:41.425Z,100366.42
2018-10-05T05:25:09.980Z,100370.80
2018-10-05T05:27:38.521Z,100369.91
2018-10-05T05:30:07.423Z,100362.94
2018-10-05T05:32:35.941Z,100371.22
2018-10-05T05:35:04.593Z,100362.48
2018-10-05T05:37:33.097Z,100360.73
2018-10-05T05:40:01.627Z,100361.61
2018-10-05T05:42:30.285Z,100353.73
2018-10-05T05:44:58.811Z,100362.04
2018-10-05T05:47:27.413Z,100357.69
2018-10-05T05:49:55.935Z,100361.61
2018-10-05T05:52:24.622Z,100352.44
2018-10-05T05:54:53.362Z,100348.92
2018-10-05T05:57:22.012Z,100348.94
2018-10-05T05:59:50.507Z,100341.50
2018-10-05T06:02:19.080Z,100341.05
2018-10-05T06:04:47.613Z,100346.73
2018-10-05T06:07:16.203Z,100341.08
2018-10-05T06:09:44.768Z,100340.17
2018-10-05T06:12:13.650Z,100345.41
2018-10-05T06:14:42.175Z,100345.40
2018-10-05T06:17:10.743Z,100348.47
2018-10-05T06:19:39.351Z,100350.20
2018-10-05T06:22:08.043Z,100348.87
2018-10-05T06:24:36.536Z,100343.58
2018-10-05T06:27:05.373Z,100337.02
2018-10-05T06:29:35.608Z,100343.53
2018-10-05T06:32:04.588Z,100338.65
2018-10-05T06:34:33.135Z,100346.34
2018-10-05T06:37:01.729Z,100342.91
2018-10-05T06:39:30.318Z,100348.80
2018-10-05T06:41:58.913Z,100344.78
2018-10-05T06:44:27.555Z,100340.11
2018-10-05T06:46:56.209Z,100335.63
2018-10-05T06:49:24.858Z,100340.14
2018-10-05T06:51:53.576Z,100341.13
2018-10-05T06:54:22.128Z,100337.61
2018-10-05T06:56:50.877Z,100336.61
2018-10-05T06:59:19.378Z,100337.25
2018-10-05T07:01:48.045Z,100345.27
2018-10-05T07:04:16.548Z,100345.27
2018-10-05T07:06:45.053Z,100338.51
2018-10-05T07:09:13.550Z,100343.15
2018-10-05T07:11:42.098Z,100342.84
2018-10-05T07:14:10.567Z,100344.09
2018-10-05T07:16:39.113Z,100345.06
2018-10-05T07:19:07.642Z,100334.66
2018-10-05T07:21:36.131Z,100332.17
2018-10-05T07:24:04.597Z,100336.83
2018-10-05T07:26:33.106Z,100340.98
2018-10-05T07:29:01.552Z,100338.59
2018-10-05T07:31:30.047Z,100336.88
2018-10-05T07:33:58.514Z,100338.31
2018-10-05T07:36:27.084Z,100329.01
2018-10-05T07:38:55.587Z,100328.46
2018-10-05T07:41:24.410Z,100332.49
2018-10-05T07:46:45.926Z,100323.94
2018-10-05T07:49:14.898Z,100319.62
2018-10-05T07:51:43.668Z,100324.64
2018-10-05T07:54:12.201Z,100331.87
2018-10-05T07:56:40.795Z,100325.37
2018-10-05T07:59:09.430Z,100324.60
2018-10-05T08:01:42.262Z,100330.69
2018-10-05T08:04:10.700Z,100337.78
2018-10-05T08:06:39.729Z,100335.87
2018-10-05T08:09:08.204Z,100327.88
2018-10-05T08:11:36.704Z,100326.46
2018-10-05T08:14:05.155Z,100325.27
2018-10-05T08:16:33.748Z,100329.83
2018-10-05T08:19:02.308Z,100327.98
2018-10-05T08:21:30.921Z,100330.61
2018-10-05T08:23:59.363Z,100320.31
2018-10-05T08:26:28.149Z,100326.78
2018-10-05T08:28:57.030Z,100319.66
2018-10-05T08:31:25.716Z,100316.56
2018-10-05T08:33:54.414Z,100322.23
2018-10-05T08:36:23.185Z,100319.80
2018-10-05T08:38:52.171Z,100320.95
2018-10-05T08:41:20.720Z,100316.64
2018-10-05T08:43:49.769Z,100327.00
2018-10-05T08:46:18.674Z,100316.80
2018-10-05T08:48:47.971Z,100309.13
2018-10-05T08:51:20.605Z,100311.98
2018-10-05T08:53:49.611Z,100319.97
2018-10-05T08:56:18.055Z,100296.87
2018-10-05T08:58:46.627Z,100300.59
2018-10-05T09:01:15.251Z,100295.41
2018-10-05T09:03:43.929Z,100292.15
2018-10-05T09:06:12.537Z,100307.38
2018-10-05T09:08:41.276Z,100283.29
2018-10-05T09:11:09.938Z,100285.31
2018-10-05T09:13:41.306Z,100281.00
2018-10-05T09:16:09.787Z,100283.86
2018-10-05T09:18:38.387Z,100280.25
2018-10-05T09:21:06.931Z,100286.55
2018-10-05T09:23:35.664Z,100278.93
2018-10-05T09:26:04.219Z,100277.77
2018-10-05T09:28:33.100Z,100288.73
2018-10-05T09:31:01.663Z,100273.77
2018-10-05T09:33:31.202Z,100261.59
2018-10-05T09:35:59.847Z,100253.97
2018-10-05T09:38:28.573Z,100250.57
2018-10-05T09:40:57.130Z,100239.31
2018-10-05T09:43:27.984Z,100239.20
2018-10-05T09:46:00.908Z,100235.09
2018-10-05T09:48:29.411Z,100231.76
2018-10-05T09:50:58.330Z,100225.17
2018-10-05T09:53:26.832Z,100220.61
2018-10-05T09:55:55.430Z,100218.77
2018-10-05T09:58:23.961Z,100210.09
2018-10-05T10:00:57.431Z,100223.56
2018-10-05T10:03:30.579Z,100209.80
2018-10-05T10:06:00.156Z,100211.69
2018-10-05T10:08:28.882Z,100206.66
2018-10-05T10:10:57.592Z,100198.23
2018-10-05T10:13:26.497Z,100200.09
2018-10-05T10:15:56.071Z,100196.34
2018-10-05T10:18:24.868Z,100200.16
2018-10-05T10:20:53.866Z,100193.86
2018-10-05T10:23:22.428Z,100190.09
2018-10-05T10:25:50.951Z,100186.35
2018-10-05T10:28:19.520Z,100189.89
2018-10-05T10:30:47.936Z,100182.30
2018-10-05T10:33:16.863Z,100176.86
2018-10-05T10:35:45.393Z,100183.80
2018-10-05T10:38:13.953Z,100176.76
2018-10-05T10:40:42.652Z,100163.66
2018-10-05T10:43:11.213Z,100158.33
2018-10-05T10:45:39.755Z,100165.84
2018-10-05T10:48:10.501Z,100162.72
2018-10-05T10:50:39.485Z,100160.20
2018-10-05T10:53:09.823Z,100151.70
2018-10-05T10:55:39.829Z,100136.33
2018-10-05T10:58:08.443Z,100137.55
2018-10-05T11:00:36.935Z,100129.50
2018-10-05T11:03:05.456Z,100126.34
2018-10-05T11:05:33.942Z,100119.34
2018-10-05T11:08:02.417Z,100111.41
2018-10-05T11:10:30.897Z,100108.79
2018-10-05T11:12:59.390Z,100104.58
2018-10-05T11:15:27.952Z,100101.36
2018-10-05T11:17:56.438Z,100094.08
2018-10-05T11:20:25.075Z,100095.55
2018-10-05T11:22:53.640Z,100103.28
2018-10-05T11:25:22.198Z,100088.05
2018-10-05T11:27:50.760Z,100085.24
2018-10-05T11:30:19.313Z,100080.30
2018-10-05T11:32:47.940Z,100074.98
2018-10-05T11:35:16.448Z,100071.39
2018-10-05T11:37:44.937Z,100057.50
2018-10-05T11:40:13.423Z,100053.99
2018-10-05T11:42:42.027Z,100057.58
2018-10-05T11:45:10.622Z,100058.16
2018-10-05T11:47:39.227Z,100055.47
2018-10-05T11:50:07.695Z,100055.28
2018-10-05T11:52:36.262Z,100041.08
2018-10-05T11:55:04.746Z,100043.86
2018-10-05T11:57:33.267Z,100037.98
2018-10-05T12:00:01.853Z,100034.36
2018-10-05T12:02:30.496Z,100030.39
2018-10-05T12:04:59.014Z,100017.89
2018-10-05T12:07:27.551Z,100016.87
2018-10-05T12:09:56.046Z,100012.38
2018-10-05T12:12:24.559Z,100011.53
2018-10-05T12:14:53.064Z,100008.48
2018-10-05T12:17:21.658Z,99998.92
2018-10-05T12:19:50.242Z,99988.14
2018-10-05T12:22:18.851Z,99995.11
2018-10-05T12:24:47.386Z,99985.46
2018-10-05T12:27:15.963Z,99986.25
2018-10-05T12:29:44.493Z,99984.48
2018-10-05T12:32:13.066Z,99980.20
2018-10-05T12:34:42.725Z,99965.44
2018-10-05T12:37:12.829Z,99968.72
2018-10-05T12:39:41.569Z,99968.86
2018-10-05T12:42:10.237Z,99967.60
2018-10-05T12:44:38.748Z,99964.84
2018-10-05T12:47:07.348Z,99960.33
2018-10-05T12:49:36.484Z,99958.56
2018-10-05T12:52:05.022Z,99967.18
2018-10-05T12:54:33.556Z,99965.81
2018-10-05T12:57:02.189Z,99954.22
2018-10-05T12:59:30.865Z,99954.17
2018-10-05T13:01:59.340Z,99959.02
2018-10-05T13:04:27.850Z,99948.83
2018-10-05T13:06:56.305Z,99945.20
2018-10-05T13:09:24.851Z,99940.90
2018-10-05T13:11:53.349Z,99941.55
2018-10-05T13:14:21.881Z,99945.40
2018-10-05T13:16:50.416Z,99951.45
2018-10-05T13:19:18.889Z,99925.32
2018-10-05T13:21:47.358Z,99945.86
2018-10-05T13:24:15.928Z,99934.00
2018-10-05T13:26:44.395Z,99934.70
2018-10-05T13:29:12.896Z,99927.75
2018-10-05T13:31:41.423Z,99921.34
2018-10-05T13:34:10.000Z,99915.25
2018-10-05T13:36:38.410Z,99911.88
2018-10-05T13:39:09.081Z,99905.27
2018-10-05T13:41:37.631Z,99907.67
2018-10-05T13:44:06.232Z,99900.88
2018-10-05T13:46:35.248Z,99901.71
2018-10-05T13:49:04.973Z,99890.53
2018-10-05T13:51:33.904Z,99887.23
2018-10-05T13:54:02.464Z,99880.90
2018-10-05T13:56:31.075Z,99882.66
2018-10-05T13:58:59.625Z,99881.97
2018-10-05T14:01:28.666Z,99878.45
2018-10-05T14:03:57.286Z,99869.11
2018-10-05T14:06:25.899Z,99865.36
2018-10-05T14:08:54.390Z,99860.00
2018-10-05T14:11:22.969Z,99850.11
2018-10-05T14:13:51.878Z,99846.92
2018-10-05T14:16:20.374Z,99849.59
2018-10-05T14:18:48.844Z,99845.81
2018-10-05T14:21:18.049Z,99839.56
2018-10-05T14:23:46.583Z,99838.00
2018-10-05T14:26:15.312Z,99835.97
2018-10-05T14:28:43.878Z,99834.72
2018-10-05T14:31:12.504Z,99834.27
2018-10-05T14:33:41.123Z,99829.83
2018-10-05T14:36:09.641Z,99824.52
2018-10-05T14:38:38.319Z,99822.05
2018-10-05T14:41:06.981Z,99811.53
2018-10-05T14:43:35.555Z,99812.67
2018-10-05T14:46:04.151Z,99811.93
2018-10-05T14:48:32.790Z,99792.20
2018-10-05T14:51:01.439Z,99801.41
2018-10-05T14:53:30.135Z,99803.11
2018-10-05T14:55:58.775Z,99798.95
2018-10-05T14:58:27.385Z,99791.66
2018-10-05T15:00:56.077Z,99787.86
2018-10-05T15:03:24.731Z,99778.67
2018-10-05T15:05:53.296Z,99773.27
2018-10-05T15:08:21.803Z,99772.24
2018-10-05T15:10:50.627Z,99775.73
2018-10-05T15:13:19.207Z,99774.22
2018-10-05T15:15:47.803Z,99771.11
2018-10-05T15:18:16.475Z,99630.33
2018-10-05T15:20:45.018Z,99761.59
2018-10-05T15:23:13.680Z,99760.56
2018-10-05T15:25:42.264Z,99749.70
2018-10-05T15:28:10.895Z,99753.34
2018-10-05T15:30:39.576Z,99747.20
2018-10-05T15:33:08.157Z,99749.14
2018-10-05T15:35:36.726Z,99743.13
2018-10-05T15:38:05.514Z,99743.26
2018-10-05T15:40:34.100Z,99737.44
2018-10-05T15:43:02.609Z,99747.70
2018-10-05T15:45:31.172Z,99746.14
2018-10-05T15:47:59.703Z,99745.67
2018-10-05T15:50:28.257Z,99760.81
2018-10-05T15:52:57.111Z,99745.66
2018-10-05T15:55:25.720Z,99748.89
2018-10-05T15:57:54.243Z,99742.59
2018-10-05T16:00:23.054Z,99737.16
2018-10-05T16:02:51.876Z,99740.98
2018-10-05T16:05:20.636Z,99741.95
2018-10-05T16:07:49.282Z,99750.40
2018-10-05T16:10:17.842Z,99764.15
2018-10-05T16:12:46.554Z,99748.49
2018-10-05T16:15:15.223Z,99747.07
2018-10-05T16:17:43.943Z,99749.78
2018-10-05T16:20:12.598Z,99748.16
2018-10-05T16:25:31.973Z,99754.44
2018-10-05T16:28:00.610Z,99751.67
2018-10-05T16:30:29.305Z,99753.75
2018-10-05T16:32:57.956Z,99746.80
2018-10-05T16:35:26.566Z,99751.08
2018-10-05T16:37:55.255Z,99752.48
2018-10-05T16:40:23.832Z,99752.08
2018-10-05T16:42:52.351Z,99752.55
2018-10-05T16:45:21.022Z,99751.08
2018-10-05T16:47:49.606Z,99748.77
2018-10-05T16:50:18.211Z,99745.23
2018-10-05T16:52:46.953Z,99748.74
2018-10-05T16:55:15.716Z,99754.92
2018-10-05T16:57:44.309Z,99761.81
2018-10-05T17:00:12.930Z,99749.31
2018-10-05T17:02:41.587Z,99751.25
2018-10-05T17:05:10.197Z,99741.49
2018-10-05T17:07:39.080Z,99741.52
2018-10-05T17:10:07.708Z,99744.22
2018-10-05T17:12:36.568Z,99742.87
2018-10-05T17:15:05.274Z,99742.94
2018-10-05T17:17:33.948Z,99742.81
2018-10-05T17:20:02.985Z,99734.98
2018-10-05T17:22:31.961Z,99732.64
2018-10-05T17:25:00.650Z,99736.03
2018-10-05T17:27:29.429Z,99636.83
2018-10-05T17:29:58.768Z,99728.99
2018-10-05T17:32:27.443Z,99726.59
2018-10-05T17:34:56.131Z,99721.34
2018-10-05T17:37:24.712Z,99724.05
2018-10-05T17:39:53.363Z,99728.20
2018-10-05T17:42:22.073Z,99727.39
2018-10-05T17:44:50.711Z,99728.43
2018-10-05T17:47:19.299Z,99723.17
2018-10-05T17:49:47.977Z,99731.93
2018-10-05T17:52:16.667Z,99726.67
2018-10-05T17:54:45.416Z,99725.91
2018-10-05T17:57:14.087Z,99726.00
2018-10-05T17:59:44.604Z,99725.28
2018-10-05T18:02:13.230Z,99723.47
2018-10-05T18:04:41.892Z,99720.03
2018-10-05T18:07:10.845Z,99720.58
2018-10-05T18:09:39.511Z,99716.27
2018-10-05T18:12:08.183Z,99717.28
2018-10-05T18:14:36.900Z,99718.16
2018-10-05T18:17:05.452Z,99717.83
2018-10-05T18:19:34.275Z,99718.22
2018-10-05T18:22:02.899Z,99718.31
2018-10-05T18:24:31.576Z,99720.16
2018-10-05T18:27:00.128Z,99713.67
2018-10-05T18:29:29.527Z,99712.80
2018-10-05T18:31:58.209Z,99705.77
2018-10-05T18:34:26.781Z,99708.97
2018-10-05T18:36:56.401Z,99702.33
2018-10-05T18:39:25.009Z,99703.95
2018-10-05T18:41:53.592Z,99708.42
2018-10-05T18:44:22.360Z,99706.77
2018-10-05T18:46:51.155Z,99706.05
2018-10-05T18:49:20.188Z,99710.52
2018-10-05T18:51:48.846Z,99710.41
2018-10-05T18:54:17.668Z,99700.72
2018-10-05T18:56:57.495Z,99699.94
2018-10-05T18:59:26.449Z,99697.56
2018-10-05T19:01:55.081Z,99695.91
2018-10-05T19:04:24.012Z,99698.66
2018-10-05T19:06:52.965Z,99697.85
2018-10-05T19:09:21.807Z,99706.91
2018-10-05T19:11:50.755Z,99702.50
2018-10-05T19:14:19.544Z,99704.28
2018-10-05T19:16:48.315Z,99700.45
2018-10-05T19:19:17.306Z,99699.28
2018-10-05T19:21:46.359Z,99701.06
2018-10-05T19:24:15.015Z,99698.63
2018-10-05T19:26:43.836Z,99708.80
2018-10-05T19:29:12.804Z,99693.47
2018-10-05T19:31:41.533Z,99693.59
2018-10-05T19:34:10.416Z,99692.08
2018-10-05T19:36:39.115Z,99696.37
2018-10-05T19:39:09.575Z,99693.77
2018-10-05T19:41:38.938Z,99699.08
2018-10-05T19:44:08.764Z,99685.96
2018-10-05T19:46:37.643Z,99687.50
2018-10-05T19:49:06.308Z,99688.05
2018-10-05T19:51:35.015Z,99680.59
2018-10-05T19:54:04.653Z,99689.88
2018-10-05T19:56:33.342Z,99686.44
2018-10-05T19:59:01.936Z,99680.02
2018-10-05T20:01:30.594Z,99681.88
2018-10-05T20:03:59.217Z,99690.84
2018-10-05T20:06:27.795Z,99678.70
2018-10-05T20:08:56.583Z,99688.20
2018-10-05T20:11:25.231Z,99683.64
2018-10-05T20:13:53.813Z,99680.59
2018-10-05T20:16:22.726Z,99677.27
2018-10-05T20:18:51.315Z,99674.28
2018-10-05T20:21:19.848Z,99664.38
2018-10-05T20:23:48.518Z,99652.20
2018-10-05T20:26:17.141Z,99665.06
2018-10-05T20:28:45.748Z,99651.73
2018-10-05T20:31:14.335Z,99658.05
2018-10-05T20:33:42.922Z,99661.34
2018-10-05T20:36:11.715Z,99657.43
2018-10-05T20:38:40.169Z,99650.94
2018-10-05T20:41:08.751Z,99659.34
2018-10-05T20:43:37.325Z,99663.02
2018-10-05T20:46:06.292Z,99656.89
2018-10-05T20:48:34.834Z,99661.01
2018-10-05T20:51:03.595Z,99651.79
2018-10-05T20:53:32.166Z,99652.33
2018-10-05T20:56:00.724Z,99648.01
2018-10-05T20:58:29.301Z,99644.77
2018-10-05T21:00:57.820Z,99646.68
2018-10-05T21:03:26.399Z,99655.95
2018-10-05T21:05:55.047Z,99660.95
2018-10-05T21:08:23.675Z,99649.53
2018-10-05T21:10:52.275Z,99652.27
2018-10-05T21:13:20.884Z,99654.04
2018-10-05T21:15:49.463Z,99651.53
2018-10-05T21:18:17.976Z,99658.55
2018-10-05T21:20:46.656Z,99653.30
2018-10-05T21:23:15.276Z,99657.47
2018-10-05T21:25:44.137Z,99650.40
2018-10-05T21:28:12.892Z,99654.52
2018-10-05T21:30:41.509Z,99650.64
2018-10-05T21:33:10.391Z,99649.72
2018-10-05T21:35:39.076Z,99647.99
2018-10-05T21:38:07.845Z,99645.42
2018-10-05T21:40:36.470Z,99650.78
2018-10-05T21:43:05.162Z,99648.19
2018-10-05T21:45:33.824Z,99650.92
2018-10-05T21:48:03.273Z,99648.77
2018-10-05T21:50:31.944Z,99656.80
2018-10-05T21:53:02.491Z,99654.26
2018-10-05T21:55:31.847Z,99649.89
2018-10-05T21:58:00.661Z,99650.42
2018-10-05T22:00:36.394Z,99651.41
2018-10-05T22:03:05.186Z,99650.72
2018-10-05T22:05:33.850Z,99646.05
2018-10-05T22:08:02.542Z,99648.39
2018-10-05T22:10:33.344Z,99645.39
2018-10-05T22:13:02.012Z,99645.44
2018-10-05T22:15:30.693Z,99642.93
2018-10-05T22:17:59.282Z,99634.64
2018-10-05T22:20:27.973Z,99633.45
2018-10-05T22:22:56.720Z,99643.64
2018-10-05T22:25:25.525Z,99640.70
2018-10-05T22:27:54.187Z,99634.61
2018-10-05T22:30:22.848Z,99639.16
2018-10-05T22:32:51.533Z,99634.39
2018-10-05T22:35:20.189Z,99634.97
2018-10-05T22:37:48.778Z,99638.20
2018-10-05T22:40:17.428Z,99628.98
2018-10-05T22:42:46.061Z,99631.31
2018-10-05T22:45:14.723Z,99632.81
2018-10-05T22:47:43.395Z,99624.05
2018-10-05T22:50:12.040Z,99626.42
2018-10-05T22:52:40.697Z,99623.03
2018-10-05T22:55:09.331Z,99620.52
2018-10-05T22:57:37.999Z,99612.70
2018-10-05T23:00:06.920Z,99619.89
2018-10-05T23:02:35.656Z,99616.10
2018-10-05T23:05:05.152Z,99614.03
2018-10-05T23:07:37.066Z,99614.95
2018-10-05T23:10:06.233Z,99613.63
2018-10-05T23:12:35.261Z,99612.80
2018-10-05T23:15:05.185Z,99619.94
2018-10-05T23:17:34.851Z,99617.82
2018-10-05T23:20:03.699Z,99619.27
2018-10-05T23:22:33.224Z,99615.34
2018-10-05T23:25:02.424Z,99612.75
2018-10-05T23:27:31.583Z,99609.70
2018-10-05T23:30:00.595Z,99610.11
2018-10-05T23:32:29.478Z,99612.75
2018-10-05T23:34:58.577Z,99612.84
2018-10-05T23:37:27.652Z,99610.20
2018-10-05T23:39:56.537Z,99602.74
2018-10-05T23:42:25.531Z,99603.19
2018-10-05T23:44:54.578Z,99601.47
2018-10-05T23:47:23.577Z,99598.52
2018-10-05T23:49:52.144Z,99598.59
2018-10-05T23:52:47.380Z,99590.70
2018-10-05T23:55:16.173Z,99593.12
2018-10-05T23:57:45.227Z,99586.73
